sensor_id;sensor_type;location;lat;lon;timestamp;P1;durP1;ratioP1;P2;durP2;ratioP2
22184;SDS011;11258;52.516;13.318;2023-12-14T00:00:54;11.87;;;5.53;;
22184;SDS011;11258;52.516;13.318;2023-12-14T00:03:20;12.53;;;6.20;;
22184;SDS011;11258;52.516;13.318;2023-12-14T00:05:46;14.63;;;6.77;;
22184;SDS011;11258;52.516;13.318;2023-12-14T00:08:12;13.30;;;6.47;;
22184;SDS011;11258;52.516;13.318;2023-12-14T00:10:37;10.17;;;5.93;;
22184;SDS011;11258;52.516;13.318;2023-12-14T00:13:03;12.20;;;6.63;;
22184;SDS011;11258;52.516;13.318;2023-12-14T00:15:31;13.17;;;6.70;;
22184;SDS011;11258;52.516;13.318;2023-12-14T00:17:57;13.10;;;6.30;;
22184;SDS011;11258;52.516;13.318;2023-12-14T00:20:23;13.57;;;6.10;;
22184;SDS011;11258;52.516;13.318;2023-12-14T00:22:49;14.07;;;6.10;;
22184;SDS011;11258;52.516;13.318;2023-12-14T00:25:15;13.20;;;6.97;;
22184;SDS011;11258;52.516;13.318;2023-12-14T00:27:41;11.27;;;6.27;;
22184;SDS011;11258;52.516;13.318;2023-12-14T00:30:07;10.77;;;5.60;;
22184;SDS011;11258;52.516;13.318;2023-12-14T00:32:33;12.50;;;6.20;;
22184;SDS011;11258;52.516;13.318;2023-12-14T00:35:00;13.90;;;6.90;;
22184;SDS011;11258;52.516;13.318;2023-12-14T00:37:26;13.23;;;6.67;;
22184;SDS011;11258;52.516;13.318;2023-12-14T00:39:52;11.57;;;6.97;;
22184;SDS011;11258;52.516;13.318;2023-12-14T00:42:19;15.33;;;7.07;;
22184;SDS011;11258;52.516;13.318;2023-12-14T00:44:45;12.53;;;7.23;;
22184;SDS011;11258;52.516;13.318;2023-12-14T00:47:11;13.23;;;6.43;;
22184;SDS011;11258;52.516;13.318;2023-12-14T00:49:38;11.90;;;6.77;;
22184;SDS011;11258;52.516;13.318;2023-12-14T00:52:04;14.97;;;6.43;;
22184;SDS011;11258;52.516;13.318;2023-12-14T00:54:30;12.07;;;6.67;;
22184;SDS011;11258;52.516;13.318;2023-12-14T00:56:56;12.00;;;6.53;;
22184;SDS011;11258;52.516;13.318;2023-12-14T00:59:22;15.70;;;6.23;;
22184;SDS011;11258;52.516;13.318;2023-12-14T01:01:48;15.17;;;6.93;;
22184;SDS011;11258;52.516;13.318;2023-12-14T01:04:14;11.37;;;5.80;;
22184;SDS011;11258;52.516;13.318;2023-12-14T01:06:40;11.73;;;6.80;;
22184;SDS011;11258;52.516;13.318;2023-12-14T01:09:06;11.67;;;6.23;;
22184;SDS011;11258;52.516;13.318;2023-12-14T01:11:33;10.73;;;5.67;;
22184;SDS011;11258;52.516;13.318;2023-12-14T01:13:59;13.03;;;5.63;;
22184;SDS011;11258;52.516;13.318;2023-12-14T01:16:28;11.70;;;5.67;;
22184;SDS011;11258;52.516;13.318;2023-12-14T01:18:54;10.70;;;5.63;;
22184;SDS011;11258;52.516;13.318;2023-12-14T01:21:20;12.10;;;5.40;;
22184;SDS011;11258;52.516;13.318;2023-12-14T01:23:46;11.57;;;6.17;;
22184;SDS011;11258;52.516;13.318;2023-12-14T01:26:12;12.07;;;6.10;;
22184;SDS011;11258;52.516;13.318;2023-12-14T01:28:38;8.97;;;5.30;;
22184;SDS011;11258;52.516;13.318;2023-12-14T01:31:04;9.90;;;5.17;;
22184;SDS011;11258;52.516;13.318;2023-12-14T01:33:30;10.17;;;4.90;;
22184;SDS011;11258;52.516;13.318;2023-12-14T01:35:56;9.00;;;5.53;;
22184;SDS011;11258;52.516;13.318;2023-12-14T01:38:22;8.80;;;4.47;;
22184;SDS011;11258;52.516;13.318;2023-12-14T01:40:48;7.67;;;4.73;;
22184;SDS011;11258;52.516;13.318;2023-12-14T01:43:14;9.33;;;4.63;;
22184;SDS011;11258;52.516;13.318;2023-12-14T01:45:40;9.50;;;4.57;;
22184;SDS011;11258;52.516;13.318;2023-12-14T01:48:06;8.23;;;4.80;;
22184;SDS011;11258;52.516;13.318;2023-12-14T01:50:32;8.53;;;4.20;;
22184;SDS011;11258;52.516;13.318;2023-12-14T01:52:58;6.27;;;4.20;;
22184;SDS011;11258;52.516;13.318;2023-12-14T01:55:24;6.57;;;4.17;;
22184;SDS011;11258;52.516;13.318;2023-12-14T01:57:51;8.83;;;4.20;;
22184;SDS011;11258;52.516;13.318;2023-12-14T02:00:22;6.23;;;3.70;;
22184;SDS011;11258;52.516;13.318;2023-12-14T02:02:51;8.87;;;4.60;;
22184;SDS011;11258;52.516;13.318;2023-12-14T02:05:17;6.53;;;3.90;;
22184;SDS011;11258;52.516;13.318;2023-12-14T02:07:43;6.27;;;3.47;;
22184;SDS011;11258;52.516;13.318;2023-12-14T02:10:09;10.23;;;4.33;;
22184;SDS011;11258;52.516;13.318;2023-12-14T02:12:35;8.50;;;3.90;;
22184;SDS011;11258;52.516;13.318;2023-12-14T02:15:01;6.43;;;3.70;;
22184;SDS011;11258;52.516;13.318;2023-12-14T02:17:27;12.10;;;4.87;;
22184;SDS011;11258;52.516;13.318;2023-12-14T02:19:53;7.60;;;4.43;;
22184;SDS011;11258;52.516;13.318;2023-12-14T02:22:19;11.73;;;4.63;;
22184;SDS011;11258;52.516;13.318;2023-12-14T02:24:45;7.37;;;4.00;;
22184;SDS011;11258;52.516;13.318;2023-12-14T02:27:11;10.43;;;5.13;;
22184;SDS011;11258;52.516;13.318;2023-12-14T02:29:37;8.57;;;5.07;;
22184;SDS011;11258;52.516;13.318;2023-12-14T02:32:05;10.63;;;4.90;;
22184;SDS011;11258;52.516;13.318;2023-12-14T02:34:31;8.00;;;4.23;;
22184;SDS011;11258;52.516;13.318;2023-12-14T02:36:57;10.30;;;4.80;;
22184;SDS011;11258;52.516;13.318;2023-12-14T02:39:23;9.00;;;5.10;;
22184;SDS011;11258;52.516;13.318;2023-12-14T02:41:49;9.37;;;5.63;;
22184;SDS011;11258;52.516;13.318;2023-12-14T02:44:15;11.50;;;5.50;;
22184;SDS011;11258;52.516;13.318;2023-12-14T02:46:41;8.27;;;5.10;;
22184;SDS011;11258;52.516;13.318;2023-12-14T02:49:07;8.97;;;4.83;;
22184;SDS011;11258;52.516;13.318;2023-12-14T02:51:33;8.10;;;4.83;;
22184;SDS011;11258;52.516;13.318;2023-12-14T02:53:59;8.13;;;4.57;;
22184;SDS011;11258;52.516;13.318;2023-12-14T02:56:25;7.33;;;4.70;;
22184;SDS011;11258;52.516;13.318;2023-12-14T02:58:51;10.53;;;5.50;;
22184;SDS011;11258;52.516;13.318;2023-12-14T03:01:19;8.50;;;4.73;;
22184;SDS011;11258;52.516;13.318;2023-12-14T03:03:46;9.67;;;5.33;;
22184;SDS011;11258;52.516;13.318;2023-12-14T03:06:12;7.80;;;4.83;;
22184;SDS011;11258;52.516;13.318;2023-12-14T03:08:38;7.90;;;4.90;;
22184;SDS011;11258;52.516;13.318;2023-12-14T03:11:04;10.93;;;5.63;;
22184;SDS011;11258;52.516;13.318;2023-12-14T03:13:30;10.13;;;5.20;;
22184;SDS011;11258;52.516;13.318;2023-12-14T03:15:57;8.17;;;4.87;;
22184;SDS011;11258;52.516;13.318;2023-12-14T03:18:23;10.13;;;4.93;;
22184;SDS011;11258;52.516;13.318;2023-12-14T03:20:49;9.53;;;4.90;;
22184;SDS011;11258;52.516;13.318;2023-12-14T03:23:15;10.17;;;5.30;;
22184;SDS011;11258;52.516;13.318;2023-12-14T03:25:41;9.57;;;5.30;;
22184;SDS011;11258;52.516;13.318;2023-12-14T03:28:07;8.00;;;5.87;;
22184;SDS011;11258;52.516;13.318;2023-12-14T03:30:34;10.77;;;5.67;;
22184;SDS011;11258;52.516;13.318;2023-12-14T03:33:00;13.07;;;6.40;;
22184;SDS011;11258;52.516;13.318;2023-12-14T03:35:26;10.33;;;5.20;;
22184;SDS011;11258;52.516;13.318;2023-12-14T03:37:52;12.10;;;5.33;;
22184;SDS011;11258;52.516;13.318;2023-12-14T03:40:18;12.10;;;6.43;;
22184;SDS011;11258;52.516;13.318;2023-12-14T03:42:44;9.23;;;5.07;;
22184;SDS011;11258;52.516;13.318;2023-12-14T03:45:10;11.60;;;6.33;;
22184;SDS011;11258;52.516;13.318;2023-12-14T03:47:36;8.83;;;5.23;;
22184;SDS011;11258;52.516;13.318;2023-12-14T03:50:02;11.43;;;5.50;;
22184;SDS011;11258;52.516;13.318;2023-12-14T03:52:28;10.47;;;5.37;;
22184;SDS011;11258;52.516;13.318;2023-12-14T03:54:56;9.87;;;5.30;;
22184;SDS011;11258;52.516;13.318;2023-12-14T03:57:22;10.60;;;5.30;;
22184;SDS011;11258;52.516;13.318;2023-12-14T03:59:48;8.43;;;5.53;;
22184;SDS011;11258;52.516;13.318;2023-12-14T04:02:14;7.37;;;4.60;;
22184;SDS011;11258;52.516;13.318;2023-12-14T04:04:40;9.50;;;5.00;;
22184;SDS011;11258;52.516;13.318;2023-12-14T04:07:06;8.63;;;4.33;;
22184;SDS011;11258;52.516;13.318;2023-12-14T04:09:32;9.50;;;4.67;;
22184;SDS011;11258;52.516;13.318;2023-12-14T04:11:58;10.73;;;4.50;;
22184;SDS011;11258;52.516;13.318;2023-12-14T04:14:24;6.53;;;3.97;;
22184;SDS011;11258;52.516;13.318;2023-12-14T04:16:50;5.07;;;3.77;;
22184;SDS011;11258;52.516;13.318;2023-12-14T04:19:16;7.43;;;4.03;;
22184;SDS011;11258;52.516;13.318;2023-12-14T04:21:42;8.70;;;4.40;;
22184;SDS011;11258;52.516;13.318;2023-12-14T04:24:08;7.37;;;3.83;;
22184;SDS011;11258;52.516;13.318;2023-12-14T04:26:34;6.90;;;4.33;;
22184;SDS011;11258;52.516;13.318;2023-12-14T04:29:00;8.73;;;4.10;;
22184;SDS011;11258;52.516;13.318;2023-12-14T04:31:26;6.97;;;4.17;;
22184;SDS011;11258;52.516;13.318;2023-12-14T04:33:52;8.93;;;4.43;;
22184;SDS011;11258;52.516;13.318;2023-12-14T04:36:18;5.97;;;3.90;;
22184;SDS011;11258;52.516;13.318;2023-12-14T04:38:44;5.93;;;3.70;;
22184;SDS011;11258;52.516;13.318;2023-12-14T04:41:12;7.50;;;4.33;;
22184;SDS011;11258;52.516;13.318;2023-12-14T04:43:37;9.37;;;4.63;;
22184;SDS011;11258;52.516;13.318;2023-12-14T04:46:03;7.53;;;4.87;;
22184;SDS011;11258;52.516;13.318;2023-12-14T04:48:31;9.10;;;4.47;;
22184;SDS011;11258;52.516;13.318;2023-12-14T04:50:57;10.53;;;5.07;;
22184;SDS011;11258;52.516;13.318;2023-12-14T04:53:23;10.53;;;4.70;;
22184;SDS011;11258;52.516;13.318;2023-12-14T04:55:49;5.93;;;4.07;;
22184;SDS011;11258;52.516;13.318;2023-12-14T04:58:15;7.30;;;4.90;;
22184;SDS011;11258;52.516;13.318;2023-12-14T05:00:41;7.43;;;4.10;;
22184;SDS011;11258;52.516;13.318;2023-12-14T05:03:07;10.00;;;4.47;;
22184;SDS011;11258;52.516;13.318;2023-12-14T05:05:33;10.03;;;4.73;;
22184;SDS011;11258;52.516;13.318;2023-12-14T05:07:59;7.57;;;4.20;;
22184;SDS011;11258;52.516;13.318;2023-12-14T05:10:25;10.53;;;5.00;;
22184;SDS011;11258;52.516;13.318;2023-12-14T05:12:51;7.20;;;4.50;;
22184;SDS011;11258;52.516;13.318;2023-12-14T05:15:17;8.93;;;5.07;;
22184;SDS011;11258;52.516;13.318;2023-12-14T05:17:45;10.43;;;5.47;;
22184;SDS011;11258;52.516;13.318;2023-12-14T05:20:11;9.37;;;4.60;;
22184;SDS011;11258;52.516;13.318;2023-12-14T05:22:37;6.27;;;4.17;;
22184;SDS011;11258;52.516;13.318;2023-12-14T05:25:03;10.13;;;4.77;;
22184;SDS011;11258;52.516;13.318;2023-12-14T05:27:29;7.57;;;4.90;;
22184;SDS011;11258;52.516;13.318;2023-12-14T05:29:55;9.60;;;4.03;;
22184;SDS011;11258;52.516;13.318;2023-12-14T05:32:21;10.23;;;5.63;;
22184;SDS011;11258;52.516;13.318;2023-12-14T05:34:47;11.40;;;4.67;;
22184;SDS011;11258;52.516;13.318;2023-12-14T05:37:13;11.03;;;5.43;;
22184;SDS011;11258;52.516;13.318;2023-12-14T05:39:42;9.23;;;4.90;;
22184;SDS011;11258;52.516;13.318;2023-12-14T05:42:10;11.00;;;5.07;;
22184;SDS011;11258;52.516;13.318;2023-12-14T05:44:36;7.23;;;4.30;;
22184;SDS011;11258;52.516;13.318;2023-12-14T05:47:02;7.33;;;4.37;;
22184;SDS011;11258;52.516;13.318;2023-12-14T05:49:28;9.03;;;5.03;;
22184;SDS011;11258;52.516;13.318;2023-12-14T05:51:54;8.73;;;4.50;;
22184;SDS011;11258;52.516;13.318;2023-12-14T05:54:20;6.50;;;4.33;;
22184;SDS011;11258;52.516;13.318;2023-12-14T05:56:46;7.97;;;4.37;;
22184;SDS011;11258;52.516;13.318;2023-12-14T05:59:12;8.07;;;4.60;;
22184;SDS011;11258;52.516;13.318;2023-12-14T06:01:38;9.93;;;4.80;;
22184;SDS011;11258;52.516;13.318;2023-12-14T06:04:04;8.80;;;4.40;;
22184;SDS011;11258;52.516;13.318;2023-12-14T06:06:30;7.20;;;4.30;;
22184;SDS011;11258;52.516;13.318;2023-12-14T06:08:56;7.60;;;4.73;;
22184;SDS011;11258;52.516;13.318;2023-12-14T06:11:22;8.00;;;4.80;;
22184;SDS011;11258;52.516;13.318;2023-12-14T06:13:48;7.73;;;4.33;;
22184;SDS011;11258;52.516;13.318;2023-12-14T06:16:16;7.87;;;4.43;;
22184;SDS011;11258;52.516;13.318;2023-12-14T06:18:42;8.70;;;4.53;;
22184;SDS011;11258;52.516;13.318;2023-12-14T06:21:08;6.50;;;4.23;;
22184;SDS011;11258;52.516;13.318;2023-12-14T06:23:35;5.37;;;4.00;;
22184;SDS011;11258;52.516;13.318;2023-12-14T06:26:02;6.13;;;4.20;;
22184;SDS011;11258;52.516;13.318;2023-12-14T06:28:29;8.07;;;4.90;;
22184;SDS011;11258;52.516;13.318;2023-12-14T06:30:55;10.67;;;4.83;;
22184;SDS011;11258;52.516;13.318;2023-12-14T06:33:22;6.63;;;4.07;;
22184;SDS011;11258;52.516;13.318;2023-12-14T06:35:48;7.03;;;4.13;;
22184;SDS011;11258;52.516;13.318;2023-12-14T06:38:15;6.37;;;4.20;;
22184;SDS011;11258;52.516;13.318;2023-12-14T06:40:41;8.93;;;4.57;;
22184;SDS011;11258;52.516;13.318;2023-12-14T06:43:07;6.13;;;4.10;;
22184;SDS011;11258;52.516;13.318;2023-12-14T06:45:36;6.60;;;4.10;;
22184;SDS011;11258;52.516;13.318;2023-12-14T06:48:02;5.83;;;3.83;;
22184;SDS011;11258;52.516;13.318;2023-12-14T06:50:28;7.43;;;4.27;;
22184;SDS011;11258;52.516;13.318;2023-12-14T06:52:54;6.53;;;4.33;;
22184;SDS011;11258;52.516;13.318;2023-12-14T06:55:20;7.23;;;4.23;;
22184;SDS011;11258;52.516;13.318;2023-12-14T06:57:46;7.60;;;4.67;;
22184;SDS011;11258;52.516;13.318;2023-12-14T07:00:12;7.20;;;4.23;;
22184;SDS011;11258;52.516;13.318;2023-12-14T07:02:39;5.87;;;3.70;;
22184;SDS011;11258;52.516;13.318;2023-12-14T07:05:05;5.60;;;3.63;;
22184;SDS011;11258;52.516;13.318;2023-12-14T07:07:31;7.30;;;4.60;;
22184;SDS011;11258;52.516;13.318;2023-12-14T07:09:57;4.43;;;3.27;;
22184;SDS011;11258;52.516;13.318;2023-12-14T07:12:23;6.23;;;3.67;;
22184;SDS011;11258;52.516;13.318;2023-12-14T07:14:49;6.83;;;3.33;;
22184;SDS011;11258;52.516;13.318;2023-12-14T07:17:15;6.13;;;3.53;;
22184;SDS011;11258;52.516;13.318;2023-12-14T07:19:41;8.17;;;4.10;;
22184;SDS011;11258;52.516;13.318;2023-12-14T07:22:07;4.47;;;3.43;;
22184;SDS011;11258;52.516;13.318;2023-12-14T07:24:33;6.63;;;3.80;;
22184;SDS011;11258;52.516;13.318;2023-12-14T07:26:59;8.40;;;4.70;;
22184;SDS011;11258;52.516;13.318;2023-12-14T07:29:25;4.83;;;3.90;;
22184;SDS011;11258;52.516;13.318;2023-12-14T07:31:52;7.13;;;4.20;;
22184;SDS011;11258;52.516;13.318;2023-12-14T07:34:18;9.23;;;4.50;;
22184;SDS011;11258;52.516;13.318;2023-12-14T07:36:45;9.37;;;4.90;;
22184;SDS011;11258;52.516;13.318;2023-12-14T07:39:11;9.33;;;4.30;;
22184;SDS011;11258;52.516;13.318;2023-12-14T07:41:37;8.33;;;4.83;;
22184;SDS011;11258;52.516;13.318;2023-12-14T07:44:03;9.87;;;4.87;;
22184;SDS011;11258;52.516;13.318;2023-12-14T07:46:29;8.40;;;4.73;;
22184;SDS011;11258;52.516;13.318;2023-12-14T07:48:55;9.77;;;5.73;;
22184;SDS011;11258;52.516;13.318;2023-12-14T07:51:21;9.03;;;5.50;;
22184;SDS011;11258;52.516;13.318;2023-12-14T07:53:47;10.77;;;5.40;;
22184;SDS011;11258;52.516;13.318;2023-12-14T07:56:13;11.17;;;7.07;;
22184;SDS011;11258;52.516;13.318;2023-12-14T07:58:39;10.43;;;5.03;;
22184;SDS011;11258;52.516;13.318;2023-12-14T08:01:06;10.10;;;6.20;;
22184;SDS011;11258;52.516;13.318;2023-12-14T08:03:32;12.83;;;5.67;;
22184;SDS011;11258;52.516;13.318;2023-12-14T08:05:58;9.40;;;6.07;;
22184;SDS011;11258;52.516;13.318;2023-12-14T08:08:24;8.80;;;5.87;;
22184;SDS011;11258;52.516;13.318;2023-12-14T08:10:50;10.47;;;6.07;;
22184;SDS011;11258;52.516;13.318;2023-12-14T08:13:16;12.77;;;6.57;;
22184;SDS011;11258;52.516;13.318;2023-12-14T08:15:42;10.07;;;6.47;;
22184;SDS011;11258;52.516;13.318;2023-12-14T08:18:08;11.60;;;6.53;;
22184;SDS011;11258;52.516;13.318;2023-12-14T08:20:34;14.83;;;6.50;;
22184;SDS011;11258;52.516;13.318;2023-12-14T08:23:00;10.20;;;6.47;;
22184;SDS011;11258;52.516;13.318;2023-12-14T08:25:26;14.90;;;6.67;;
22184;SDS011;11258;52.516;13.318;2023-12-14T08:27:52;8.03;;;5.53;;
22184;SDS011;11258;52.516;13.318;2023-12-14T08:30:18;11.13;;;6.13;;
22184;SDS011;11258;52.516;13.318;2023-12-14T08:32:44;11.67;;;6.80;;
22184;SDS011;11258;52.516;13.318;2023-12-14T08:35:10;9.97;;;6.53;;
22184;SDS011;11258;52.516;13.318;2023-12-14T08:37:36;10.30;;;5.43;;
22184;SDS011;11258;52.516;13.318;2023-12-14T08:40:02;11.37;;;5.70;;
22184;SDS011;11258;52.516;13.318;2023-12-14T08:42:28;9.50;;;6.17;;
22184;SDS011;11258;52.516;13.318;2023-12-14T08:44:54;13.93;;;6.93;;
22184;SDS011;11258;52.516;13.318;2023-12-14T08:47:20;10.87;;;6.27;;
22184;SDS011;11258;52.516;13.318;2023-12-14T08:49:46;11.90;;;6.43;;
22184;SDS011;11258;52.516;13.318;2023-12-14T08:52:12;11.30;;;6.40;;
22184;SDS011;11258;52.516;13.318;2023-12-14T08:54:39;11.70;;;6.30;;
22184;SDS011;11258;52.516;13.318;2023-12-14T08:57:08;9.97;;;6.20;;
22184;SDS011;11258;52.516;13.318;2023-12-14T08:59:34;11.97;;;6.60;;
22184;SDS011;11258;52.516;13.318;2023-12-14T09:02:00;11.90;;;6.73;;
22184;SDS011;11258;52.516;13.318;2023-12-14T09:04:26;9.03;;;5.53;;
22184;SDS011;11258;52.516;13.318;2023-12-14T09:06:52;10.90;;;6.67;;
22184;SDS011;11258;52.516;13.318;2023-12-14T09:09:18;9.10;;;6.40;;
22184;SDS011;11258;52.516;13.318;2023-12-14T09:11:45;13.27;;;6.50;;
22184;SDS011;11258;52.516;13.318;2023-12-14T09:14:11;14.20;;;6.27;;
22184;SDS011;11258;52.516;13.318;2023-12-14T09:16:37;10.00;;;6.00;;
22184;SDS011;11258;52.516;13.318;2023-12-14T09:19:03;11.23;;;6.90;;
22184;SDS011;11258;52.516;13.318;2023-12-14T09:21:29;12.27;;;6.80;;
22184;SDS011;11258;52.516;13.318;2023-12-14T09:23:55;11.80;;;6.73;;
22184;SDS011;11258;52.516;13.318;2023-12-14T09:26:21;15.50;;;6.97;;
22184;SDS011;11258;52.516;13.318;2023-12-14T09:28:47;10.97;;;6.50;;
22184;SDS011;11258;52.516;13.318;2023-12-14T09:31:13;9.43;;;5.80;;
22184;SDS011;11258;52.516;13.318;2023-12-14T09:33:41;12.90;;;7.33;;
22184;SDS011;11258;52.516;13.318;2023-12-14T09:36:07;15.53;;;7.37;;
22184;SDS011;11258;52.516;13.318;2023-12-14T09:38:33;12.17;;;6.87;;
22184;SDS011;11258;52.516;13.318;2023-12-14T09:41:01;11.47;;;6.43;;
22184;SDS011;11258;52.516;13.318;2023-12-14T09:43:27;15.03;;;6.73;;
22184;SDS011;11258;52.516;13.318;2023-12-14T09:45:54;11.10;;;6.20;;
22184;SDS011;11258;52.516;13.318;2023-12-14T09:48:20;12.43;;;7.00;;
22184;SDS011;11258;52.516;13.318;2023-12-14T09:50:47;12.97;;;6.80;;
22184;SDS011;11258;52.516;13.318;2023-12-14T09:53:15;10.30;;;6.33;;
22184;SDS011;11258;52.516;13.318;2023-12-14T09:55:41;12.47;;;6.50;;
22184;SDS011;11258;52.516;13.318;2023-12-14T09:58:07;9.73;;;5.70;;
22184;SDS011;11258;52.516;13.318;2023-12-14T10:00:40;13.73;;;6.97;;
22184;SDS011;11258;52.516;13.318;2023-12-14T10:05:43;10.63;;;6.10;;
22184;SDS011;11258;52.516;13.318;2023-12-14T10:08:09;11.00;;;6.30;;
22184;SDS011;11258;52.516;13.318;2023-12-14T10:10:35;11.70;;;7.10;;
22184;SDS011;11258;52.516;13.318;2023-12-14T10:13:01;12.90;;;6.83;;
22184;SDS011;11258;52.516;13.318;2023-12-14T10:15:27;11.87;;;6.33;;
22184;SDS011;11258;52.516;13.318;2023-12-14T10:17:53;8.73;;;5.97;;
22184;SDS011;11258;52.516;13.318;2023-12-14T10:20:20;11.20;;;6.43;;
22184;SDS011;11258;52.516;13.318;2023-12-14T10:22:51;10.10;;;6.23;;
22184;SDS011;11258;52.516;13.318;2023-12-14T10:25:20;14.77;;;7.27;;
22184;SDS011;11258;52.516;13.318;2023-12-14T10:27:46;22.77;;;10.67;;
22184;SDS011;11258;52.516;13.318;2023-12-14T10:30:17;11.77;;;6.37;;
22184;SDS011;11258;52.516;13.318;2023-12-14T10:32:45;14.90;;;6.90;;
22184;SDS011;11258;52.516;13.318;2023-12-14T10:35:12;9.00;;;5.77;;
22184;SDS011;11258;52.516;13.318;2023-12-14T10:37:41;9.60;;;5.43;;
22184;SDS011;11258;52.516;13.318;2023-12-14T10:40:08;10.47;;;5.87;;
22184;SDS011;11258;52.516;13.318;2023-12-14T10:42:37;9.97;;;6.73;;
22184;SDS011;11258;52.516;13.318;2023-12-14T10:45:04;9.23;;;5.73;;
22184;SDS011;11258;52.516;13.318;2023-12-14T10:47:31;11.57;;;6.63;;
22184;SDS011;11258;52.516;13.318;2023-12-14T10:49:58;10.60;;;6.00;;
22184;SDS011;11258;52.516;13.318;2023-12-14T10:52:26;11.17;;;5.83;;
22184;SDS011;11258;52.516;13.318;2023-12-14T10:54:55;13.60;;;6.87;;
22184;SDS011;11258;52.516;13.318;2023-12-14T10:57:22;11.37;;;6.43;;
22184;SDS011;11258;52.516;13.318;2023-12-14T10:59:49;11.20;;;7.03;;
22184;SDS011;11258;52.516;13.318;2023-12-14T11:02:15;11.13;;;6.97;;
22184;SDS011;11258;52.516;13.318;2023-12-14T11:04:57;14.00;;;6.60;;
22184;SDS011;11258;52.516;13.318;2023-12-14T11:10:12;10.37;;;6.83;;
22184;SDS011;11258;52.516;13.318;2023-12-14T11:12:49;11.33;;;6.90;;
22184;SDS011;11258;52.516;13.318;2023-12-14T11:15:17;12.50;;;6.17;;
22184;SDS011;11258;52.516;13.318;2023-12-14T11:17:49;9.03;;;6.00;;
22184;SDS011;11258;52.516;13.318;2023-12-14T11:20:29;13.13;;;6.53;;
22184;SDS011;11258;52.516;13.318;2023-12-14T11:22:55;10.13;;;6.53;;
22184;SDS011;11258;52.516;13.318;2023-12-14T11:25:23;10.50;;;6.43;;
22184;SDS011;11258;52.516;13.318;2023-12-14T11:27:49;10.87;;;6.80;;
22184;SDS011;11258;52.516;13.318;2023-12-14T11:30:15;13.73;;;6.23;;
22184;SDS011;11258;52.516;13.318;2023-12-14T11:32:42;10.83;;;6.37;;
22184;SDS011;11258;52.516;13.318;2023-12-14T11:35:08;10.53;;;6.17;;
22184;SDS011;11258;52.516;13.318;2023-12-14T11:37:37;10.43;;;5.60;;
22184;SDS011;11258;52.516;13.318;2023-12-14T11:40:03;12.00;;;5.87;;
22184;SDS011;11258;52.516;13.318;2023-12-14T11:42:32;11.90;;;6.13;;
22184;SDS011;11258;52.516;13.318;2023-12-14T11:44:58;11.73;;;6.67;;
22184;SDS011;11258;52.516;13.318;2023-12-14T11:47:24;10.10;;;5.93;;
22184;SDS011;11258;52.516;13.318;2023-12-14T11:49:50;10.33;;;5.90;;
22184;SDS011;11258;52.516;13.318;2023-12-14T11:52:17;12.80;;;6.73;;
22184;SDS011;11258;52.516;13.318;2023-12-14T11:54:43;12.47;;;6.03;;
22184;SDS011;11258;52.516;13.318;2023-12-14T11:57:09;10.50;;;5.63;;
22184;SDS011;11258;52.516;13.318;2023-12-14T11:59:36;9.20;;;5.77;;
22184;SDS011;11258;52.516;13.318;2023-12-14T12:02:03;10.20;;;6.00;;
22184;SDS011;11258;52.516;13.318;2023-12-14T12:04:29;9.60;;;5.67;;
22184;SDS011;11258;52.516;13.318;2023-12-14T12:07:04;11.53;;;6.13;;
22184;SDS011;11258;52.516;13.318;2023-12-14T12:09:35;9.43;;;6.03;;
22184;SDS011;11258;52.516;13.318;2023-12-14T12:12:01;8.13;;;5.23;;
22184;SDS011;11258;52.516;13.318;2023-12-14T12:14:28;9.30;;;5.43;;
22184;SDS011;11258;52.516;13.318;2023-12-14T12:16:54;8.93;;;5.27;;
22184;SDS011;11258;52.516;13.318;2023-12-14T12:19:20;9.47;;;4.57;;
22184;SDS011;11258;52.516;13.318;2023-12-14T12:21:46;8.30;;;5.10;;
22184;SDS011;11258;52.516;13.318;2023-12-14T12:24:12;7.67;;;4.43;;
22184;SDS011;11258;52.516;13.318;2023-12-14T12:26:38;9.97;;;5.50;;
22184;SDS011;11258;52.516;13.318;2023-12-14T12:29:04;7.63;;;4.67;;
22184;SDS011;11258;52.516;13.318;2023-12-14T12:31:31;11.17;;;5.73;;
22184;SDS011;11258;52.516;13.318;2023-12-14T12:33:59;10.30;;;6.07;;
22184;SDS011;11258;52.516;13.318;2023-12-14T12:36:25;9.30;;;5.17;;
22184;SDS011;11258;52.516;13.318;2023-12-14T12:38:51;12.13;;;6.43;;
22184;SDS011;11258;52.516;13.318;2023-12-14T12:41:17;8.80;;;5.20;;
22184;SDS011;11258;52.516;13.318;2023-12-14T12:43:43;9.47;;;5.83;;
22184;SDS011;11258;52.516;13.318;2023-12-14T12:46:09;10.07;;;5.37;;
22184;SDS011;11258;52.516;13.318;2023-12-14T12:48:36;10.47;;;6.37;;
22184;SDS011;11258;52.516;13.318;2023-12-14T12:51:02;8.87;;;5.30;;
22184;SDS011;11258;52.516;13.318;2023-12-14T12:53:28;7.23;;;4.97;;
22184;SDS011;11258;52.516;13.318;2023-12-14T12:55:54;8.60;;;5.80;;
22184;SDS011;11258;52.516;13.318;2023-12-14T12:58:20;8.63;;;5.33;;
22184;SDS011;11258;52.516;13.318;2023-12-14T13:00:46;9.63;;;5.67;;
22184;SDS011;11258;52.516;13.318;2023-12-14T13:03:12;8.87;;;5.20;;
22184;SDS011;11258;52.516;13.318;2023-12-14T13:05:38;10.10;;;5.37;;
22184;SDS011;11258;52.516;13.318;2023-12-14T13:08:04;9.60;;;5.70;;
22184;SDS011;11258;52.516;13.318;2023-12-14T13:10:30;9.27;;;6.30;;
22184;SDS011;11258;52.516;13.318;2023-12-14T13:12:56;9.07;;;5.13;;
22184;SDS011;11258;52.516;13.318;2023-12-14T13:15:22;8.27;;;5.03;;
22184;SDS011;11258;52.516;13.318;2023-12-14T13:17:50;9.30;;;5.47;;
22184;SDS011;11258;52.516;13.318;2023-12-14T13:20:16;17.73;;;5.63;;
22184;SDS011;11258;52.516;13.318;2023-12-14T13:22:43;12.23;;;6.77;;
22184;SDS011;11258;52.516;13.318;2023-12-14T13:25:09;10.97;;;6.50;;
22184;SDS011;11258;52.516;13.318;2023-12-14T13:27:35;10.97;;;6.27;;
22184;SDS011;11258;52.516;13.318;2023-12-14T13:30:01;9.47;;;6.30;;
22184;SDS011;11258;52.516;13.318;2023-12-14T13:32:28;12.87;;;7.43;;
22184;SDS011;11258;52.516;13.318;2023-12-14T13:34:54;11.13;;;6.47;;
22184;SDS011;11258;52.516;13.318;2023-12-14T13:37:20;13.37;;;6.70;;
22184;SDS011;11258;52.516;13.318;2023-12-14T13:39:46;11.67;;;7.13;;
22184;SDS011;11258;52.516;13.318;2023-12-14T13:42:13;10.73;;;6.47;;
22184;SDS011;11258;52.516;13.318;2023-12-14T13:44:40;9.17;;;5.67;;
22184;SDS011;11258;52.516;13.318;2023-12-14T13:47:06;10.77;;;6.60;;
22184;SDS011;11258;52.516;13.318;2023-12-14T13:49:33;8.13;;;5.97;;
22184;SDS011;11258;52.516;13.318;2023-12-14T13:51:59;11.93;;;5.77;;
22184;SDS011;11258;52.516;13.318;2023-12-14T13:54:25;11.27;;;6.13;;
22184;SDS011;11258;52.516;13.318;2023-12-14T13:56:51;10.97;;;6.53;;
22184;SDS011;11258;52.516;13.318;2023-12-14T13:59:18;10.00;;;6.67;;
22184;SDS011;11258;52.516;13.318;2023-12-14T14:01:44;10.60;;;6.30;;
22184;SDS011;11258;52.516;13.318;2023-12-14T14:04:10;15.27;;;7.37;;
22184;SDS011;11258;52.516;13.318;2023-12-14T14:06:36;10.87;;;7.10;;
22184;SDS011;11258;52.516;13.318;2023-12-14T14:09:02;12.27;;;6.80;;
22184;SDS011;11258;52.516;13.318;2023-12-14T14:11:29;10.90;;;6.87;;
22184;SDS011;11258;52.516;13.318;2023-12-14T14:13:55;9.97;;;6.33;;
22184;SDS011;11258;52.516;13.318;2023-12-14T14:16:21;10.07;;;6.07;;
22184;SDS011;11258;52.516;13.318;2023-12-14T14:18:47;11.27;;;6.67;;
22184;SDS011;11258;52.516;13.318;2023-12-14T14:21:13;15.17;;;6.83;;
22184;SDS011;11258;52.516;13.318;2023-12-14T14:23:39;12.73;;;5.77;;
22184;SDS011;11258;52.516;13.318;2023-12-14T14:26:05;10.73;;;6.53;;
22184;SDS011;11258;52.516;13.318;2023-12-14T14:28:31;13.20;;;6.80;;